createdAt,value
2023-09-21T11:31:03.276Z,100120.00
2023-09-21T11:31:33.008Z,100118.00
2023-09-21T11:32:02.917Z,100118.00
2023-09-21T12:47:56.295Z,99904.00
2023-09-21T12:48:27.003Z,99906.00
2023-09-21T12:48:56.913Z,99908.00
2023-09-21T12:49:27.076Z,99906.00
2023-09-21T12:49:56.835Z,99908.00
2023-09-21T12:50:26.951Z,99906.00
2023-09-21T12:50:56.891Z,99908.00
2023-09-21T12:51:26.983Z,99910.00
2023-09-21T12:51:58.213Z,99908.00
2023-09-21T12:52:26.802Z,99908.00
2023-09-21T12:52:56.999Z,99908.00
2023-09-21T12:53:26.980Z,99904.00
2023-09-21T12:53:56.802Z,99902.00
2023-09-21T12:54:26.951Z,99902.00
2023-09-21T12:54:56.796Z,99902.00
2023-09-21T12:55:26.778Z,99902.00
2023-09-21T12:55:56.788Z,99898.00
2023-09-21T12:56:26.885Z,99900.00
2023-09-21T12:56:56.811Z,99900.00
2023-09-21T12:57:26.989Z,99898.00
2023-09-21T12:57:56.883Z,99900.00
2023-09-21T12:58:26.797Z,99894.00
2023-09-21T12:58:56.881Z,99896.00
2023-09-21T12:59:26.753Z,99880.00
2023-09-21T12:59:57.976Z,99826.00
2023-09-21T13:01:45.121Z,99824.00
2023-09-21T13:02:15.836Z,99822.00
2023-09-21T13:02:47.050Z,99820.00
2023-09-21T13:03:16.254Z,99822.00
2023-09-21T13:03:46.158Z,99826.00
2023-09-21T13:04:15.990Z,99824.00
2023-09-21T13:04:45.898Z,99818.00
2023-09-21T13:05:15.968Z,99824.00
2023-09-21T13:05:45.780Z,99822.00
2023-09-21T13:06:15.927Z,99820.00
2023-09-21T13:06:45.794Z,99822.00
2023-09-21T13:07:15.885Z,99822.00
2023-09-21T13:07:45.907Z,99826.00
2023-09-21T13:08:15.870Z,99826.00
2023-09-21T13:08:46.142Z,99824.00
2023-09-21T13:09:15.919Z,99822.00
2023-09-21T13:09:51.798Z,99822.00
2023-09-21T13:10:15.903Z,99818.00
2023-09-21T13:10:45.725Z,99820.00
2023-09-21T13:11:15.721Z,99820.00
2023-09-21T13:11:45.781Z,99822.00
2023-09-21T13:12:15.891Z,99818.00
2023-09-21T13:12:45.733Z,99818.00
2023-09-21T13:13:15.838Z,99820.00
2023-09-21T13:13:46.017Z,99818.00
2023-09-21T13:14:15.829Z,99818.00
2023-09-21T13:14:45.827Z,99820.00
2023-09-21T13:15:16.027Z,99820.00
2023-09-21T13:15:46.570Z,99822.00
2023-09-21T13:16:15.870Z,99820.00
2023-09-21T13:16:45.931Z,99820.00
2023-09-21T13:17:15.829Z,99820.00
2023-09-21T13:17:45.702Z,99814.00
2023-09-21T13:18:15.966Z,99816.00
2023-09-21T13:18:46.220Z,99816.00
2023-09-21T13:19:15.793Z,99814.00
2023-09-21T13:19:45.781Z,99816.00
2023-09-21T13:20:15.789Z,99814.00
2023-09-21T13:20:46.082Z,99816.00
2023-09-21T13:21:15.827Z,99816.00
2023-09-21T13:21:45.805Z,99812.00
2023-09-21T13:22:15.840Z,99812.00
2023-09-21T13:22:45.634Z,99814.00
2023-09-21T13:23:15.788Z,99816.00
2023-09-21T13:23:44.653Z,99814.00
2023-09-21T13:24:15.830Z,99812.00
2023-09-21T13:24:45.781Z,99810.00
2023-09-21T13:25:15.816Z,99812.00
2023-09-21T13:25:45.634Z,99810.00
2023-09-21T13:26:15.749Z,99810.00
2023-09-21T13:26:45.817Z,99806.00
2023-09-21T13:27:15.731Z,99806.00
2023-09-21T13:27:45.716Z,99808.00
2023-09-21T13:28:15.744Z,99806.00
2023-09-21T13:28:45.674Z,99806.00
2023-09-21T13:29:17.409Z,99802.00
2023-09-21T13:29:45.730Z,99800.00
2023-09-21T13:30:15.753Z,99800.00
2023-09-21T13:30:45.783Z,99802.00
2023-09-21T13:31:15.626Z,99800.00
2023-09-21T13:31:45.722Z,99800.00
2023-09-21T13:32:15.694Z,99802.00
2023-09-21T13:32:44.711Z,99798.00
2023-09-21T13:33:15.650Z,99796.00
2023-09-21T13:33:45.827Z,99796.00
2023-09-21T13:34:15.851Z,99794.00
2023-09-21T13:34:45.680Z,99802.00
2023-09-21T13:35:15.669Z,99798.00
2023-09-21T13:35:45.683Z,99796.00
2023-09-21T13:36:15.690Z,99798.00
2023-09-21T13:36:46.537Z,99800.00
2023-09-21T13:37:15.651Z,99798.00
2023-09-21T13:37:45.653Z,99796.00
2023-09-21T13:38:15.652Z,99802.00
2023-09-21T13:38:45.795Z,99800.00
2023-09-21T13:39:15.687Z,99798.00
2023-09-21T13:39:45.628Z,99796.00
2023-09-21T13:40:15.632Z,99794.00
2023-09-21T13:40:45.630Z,99792.00
2023-09-21T13:41:15.514Z,99798.00
2023-09-21T13:41:45.633Z,99792.00
2023-09-21T13:42:15.692Z,99792.00
2023-09-21T13:42:46.616Z,99792.00
2023-09-21T13:43:15.786Z,99790.00
2023-09-21T13:43:45.691Z,99792.00
2023-09-21T13:44:15.592Z,99790.00
2023-09-21T13:44:45.599Z,99792.00
2023-09-21T13:45:15.631Z,99788.00
2023-09-21T13:45:45.675Z,99782.00
2023-09-21T13:46:15.480Z,99782.00
2023-09-21T13:46:45.616Z,99782.00
2023-09-21T13:47:15.588Z,99774.00
2023-09-21T13:47:45.612Z,99784.00
2023-09-21T13:48:15.713Z,99782.00
2023-09-21T13:48:45.830Z,99774.00
2023-09-21T13:49:17.973Z,99774.00
2023-09-21T13:49:45.676Z,99774.00
2023-09-21T13:50:15.543Z,99782.00
2023-09-21T13:50:45.443Z,99782.00
2023-09-21T13:51:15.436Z,99782.00
2023-09-21T13:51:45.417Z,99774.00
2023-09-21T13:52:15.406Z,99782.00
2023-09-21T13:52:48.498Z,99782.00
2023-09-21T13:53:15.398Z,99774.00
2023-09-21T13:53:45.622Z,99774.00
2023-09-21T13:54:15.604Z,99774.00
2023-09-21T13:54:45.572Z,99772.00
2023-09-21T13:55:18.869Z,99772.00
2023-09-21T13:55:45.391Z,99772.00
2023-09-21T13:56:15.506Z,99770.00
2023-09-21T13:56:45.498Z,99766.00
2023-09-21T13:57:15.546Z,99770.00
2023-09-21T13:57:45.747Z,99766.00
2023-09-21T13:58:15.499Z,99766.00
2023-09-21T13:58:45.794Z,99764.00
2023-09-21T13:59:18.812Z,99762.00
2023-09-21T14:01:46.432Z,99766.00
2023-09-21T14:02:15.902Z,99766.00
2023-09-21T14:02:48.288Z,99766.00
2023-09-21T14:03:16.437Z,99764.00
2023-09-21T14:03:46.397Z,99762.00
2023-09-21T14:04:15.225Z,99764.00
2023-09-21T14:04:46.663Z,99762.00
2023-09-21T14:05:16.123Z,99762.00
2023-09-21T14:05:46.137Z,99762.00
2023-09-21T14:06:15.979Z,99762.00
2023-09-21T14:06:46.034Z,99760.00
2023-09-21T14:07:16.669Z,99762.00
2023-09-21T14:07:44.968Z,99762.00
2023-09-21T14:08:15.916Z,99762.00
2023-09-21T14:08:46.089Z,99762.00
2023-09-21T14:09:15.961Z,99760.00
2023-09-21T14:09:46.862Z,99762.00
2023-09-21T14:10:16.855Z,99760.00
2023-09-21T14:11:03.456Z,99758.00
2023-09-21T14:11:17.630Z,99758.00
2023-09-21T14:11:46.037Z,99764.00
2023-09-21T14:13:39.448Z,99758.00
2023-09-21T14:14:08.533Z,99756.00
2023-09-21T14:14:38.448Z,99760.00
2023-09-21T14:15:11.141Z,99758.00
2023-09-21T14:15:38.829Z,99758.00
2023-09-21T14:16:09.009Z,99758.00
2023-09-21T14:18:21.629Z,99758.00
2023-09-21T14:18:50.021Z,99758.00
2023-09-21T14:19:20.106Z,99756.00
2023-09-21T14:19:51.014Z,99758.00
2023-09-21T14:20:22.223Z,99754.00
2023-09-21T14:20:54.227Z,99752.00
2023-09-21T14:21:20.776Z,99754.00
2023-09-21T14:24:11.147Z,99745.00
2023-09-21T14:24:41.200Z,99743.00
2023-09-21T14:25:12.007Z,99743.00
2023-09-21T14:25:43.026Z,99741.00
2023-09-21T14:26:11.544Z,99743.00
2023-09-21T14:26:42.351Z,99745.00
2023-09-21T14:28:48.926Z,99741.00
2023-09-21T14:30:37.105Z,99737.00
2023-09-21T14:31:08.615Z,99739.00
